createdAt,value
2023-01-05T00:01:11.529Z,95890.19
2023-01-05T00:03:38.910Z,95891.69
2023-01-05T00:06:12.737Z,95907.59
2023-01-05T00:08:39.845Z,95896.41
2023-01-05T00:11:07.542Z,95882.91
2023-01-05T00:13:34.181Z,95881.66
2023-01-05T00:16:03.293Z,95892.56
2023-01-05T00:18:29.913Z,95882.53
2023-01-05T00:20:56.611Z,95887.00
2023-01-05T00:23:23.155Z,95887.22
2023-01-05T00:25:49.751Z,95889.00
2023-01-05T00:28:16.270Z,95887.88
2023-01-05T00:30:45.730Z,95886.75
2023-01-05T00:33:15.194Z,95882.31
2023-01-05T00:35:41.949Z,95883.72
2023-01-05T00:38:09.594Z,95876.88
2023-01-05T00:40:38.771Z,95874.03
2023-01-05T00:43:05.466Z,95870.16
2023-01-05T00:45:32.201Z,95872.59
2023-01-05T00:47:58.840Z,95857.88
2023-01-05T00:50:25.483Z,95853.53
2023-01-05T00:52:52.036Z,95862.00
2023-01-05T00:55:18.777Z,95854.69
2023-01-05T00:57:45.382Z,95846.84
2023-01-05T01:00:16.279Z,95857.09
2023-01-05T01:02:43.256Z,95854.53
2023-01-05T01:05:10.431Z,95855.84
2023-01-05T01:07:36.976Z,95835.50
2023-01-05T01:10:05.204Z,95844.34
2023-01-05T01:12:31.713Z,95850.72
2023-01-05T01:14:58.180Z,95858.91
2023-01-05T01:17:24.911Z,95858.72
2023-01-05T01:19:51.465Z,95853.63
2023-01-05T01:22:18.986Z,95856.34
2023-01-05T01:24:45.542Z,95861.47
2023-01-05T01:27:12.429Z,95852.69
2023-01-05T01:29:39.889Z,95867.28
2023-01-05T01:32:06.391Z,95860.84
2023-01-05T01:34:33.109Z,95848.69
2023-01-05T01:36:59.776Z,95863.56
2023-01-05T01:39:30.872Z,95867.41
2023-01-05T01:42:03.110Z,95852.06
2023-01-05T01:45:05.985Z,95829.97
2023-01-05T01:47:56.470Z,95821.66
2023-01-05T01:50:31.841Z,95831.56
2023-01-05T01:53:04.479Z,95834.59
2023-01-05T01:55:32.918Z,95834.09
2023-01-05T01:58:01.223Z,95833.00
2023-01-05T02:00:27.684Z,95857.44
2023-01-05T02:02:56.419Z,95841.47
2023-01-05T02:05:28.370Z,95825.16
2023-01-05T02:07:54.943Z,95813.75
2023-01-05T02:10:42.435Z,95805.28
2023-01-05T02:13:31.943Z,95801.41
2023-01-05T02:16:33.628Z,95807.00
2023-01-05T02:19:03.089Z,95800.47
2023-01-05T02:21:54.539Z,95806.84
2023-01-05T02:24:41.453Z,95786.06
2023-01-05T02:27:26.934Z,95744.78
2023-01-05T02:29:59.995Z,95759.63
2023-01-05T02:32:37.056Z,95747.44
2023-01-05T02:35:20.250Z,95750.59
2023-01-05T02:38:23.975Z,95745.13
2023-01-05T02:40:57.612Z,95728.31
2023-01-05T02:43:24.441Z,95735.38
2023-01-05T02:45:51.084Z,95740.63
2023-01-05T02:48:17.698Z,95722.28
2023-01-05T02:50:54.239Z,95715.53
2023-01-05T02:53:31.209Z,95722.28
2023-01-05T02:56:03.728Z,95716.53
2023-01-05T02:58:39.646Z,95714.97
2023-01-05T03:01:09.682Z,95707.28
2023-01-05T03:03:49.626Z,95710.22
2023-01-05T03:06:43.017Z,95724.59
2023-01-05T03:09:09.635Z,95734.22
2023-01-05T03:12:19.719Z,95731.66
2023-01-05T03:14:51.130Z,95731.66
2023-01-05T03:17:25.768Z,95715.81
2023-01-05T03:19:55.445Z,95719.19
2023-01-05T03:22:25.761Z,95716.28
2023-01-05T03:24:52.575Z,95708.94
2023-01-05T03:27:19.477Z,95722.03
2023-01-05T03:29:46.228Z,95716.78
2023-01-05T03:32:22.997Z,95718.69
2023-01-05T03:34:56.390Z,95719.81
2023-01-05T03:37:43.287Z,95707.19
2023-01-05T03:40:16.832Z,95709.44
2023-01-05T03:42:44.011Z,95699.84
2023-01-05T03:45:12.013Z,95700.81
2023-01-05T03:47:38.492Z,95706.09
2023-01-05T03:50:05.605Z,95690.72
2023-01-05T03:52:32.149Z,95692.31
2023-01-05T03:55:00.355Z,95699.84
2023-01-05T03:57:27.590Z,95696.50
2023-01-05T03:59:54.461Z,95689.81
2023-01-05T04:02:21.276Z,95696.03
2023-01-05T04:04:48.028Z,95697.16
2023-01-05T04:07:14.892Z,95690.44
2023-01-05T04:09:41.409Z,95689.66
2023-01-05T04:12:09.063Z,95675.72
2023-01-05T04:14:39.917Z,95670.59
2023-01-05T04:17:06.696Z,95673.16
2023-01-05T04:19:33.202Z,95666.94
2023-01-05T04:22:00.987Z,95661.66
2023-01-05T04:24:30.085Z,95664.88
2023-01-05T04:26:57.533Z,95672.88
2023-01-05T04:29:26.222Z,95678.47
2023-01-05T04:31:54.094Z,95695.44
2023-01-05T04:34:20.700Z,95683.91
2023-01-05T04:36:48.955Z,95693.66
2023-01-05T04:39:18.806Z,95690.31
2023-01-05T04:41:45.471Z,95715.91
2023-01-05T04:44:12.776Z,95701.53
2023-01-05T04:46:40.956Z,95712.25
2023-01-05T04:49:10.470Z,95726.19
2023-01-05T04:51:38.658Z,95697.97
2023-01-05T04:54:06.946Z,95707.44
2023-01-05T04:56:34.277Z,95711.78
2023-01-05T04:59:03.388Z,95687.59
2023-01-05T05:01:30.062Z,95678.94
2023-01-05T05:03:58.890Z,95685.97
2023-01-05T05:06:25.980Z,95681.34
2023-01-05T05:08:55.064Z,95676.84
2023-01-05T05:11:24.217Z,95702.16
2023-01-05T05:13:51.264Z,95689.19
2023-01-05T05:16:17.903Z,95666.78
2023-01-05T05:18:46.340Z,95666.91
2023-01-05T05:21:17.905Z,95660.84
2023-01-05T05:23:44.379Z,95680.06
2023-01-05T05:26:11.044Z,95685.00
2023-01-05T05:28:37.978Z,95680.72
2023-01-05T05:31:04.725Z,95679.25
2023-01-05T05:33:31.372Z,95682.47
2023-01-05T05:35:57.831Z,95691.09
2023-01-05T05:38:24.483Z,95680.84
2023-01-05T05:40:51.194Z,95684.69
2023-01-05T05:43:17.704Z,95684.06
2023-01-05T05:45:50.007Z,95670.28
2023-01-05T05:48:17.671Z,95688.56
2023-01-05T05:50:44.889Z,95701.19
2023-01-05T05:53:11.465Z,95733.88
2023-01-05T05:55:37.949Z,95703.94
2023-01-05T05:58:04.617Z,95709.38
2023-01-05T06:00:31.334Z,95711.44
2023-01-05T06:02:58.044Z,95726.34
2023-01-05T06:05:24.679Z,95726.34
2023-01-05T06:07:51.296Z,95719.63
2023-01-05T06:10:17.775Z,95724.88
2023-01-05T06:12:44.443Z,95718.19
2023-01-05T06:15:11.323Z,95721.22
2023-01-05T06:17:37.867Z,95737.69
2023-01-05T06:20:05.679Z,95735.31
2023-01-05T06:22:34.730Z,95739.78
2023-01-05T06:25:01.271Z,95729.69
2023-01-05T06:27:27.803Z,95735.78
2023-01-05T06:29:54.272Z,95724.06
2023-01-05T06:32:20.777Z,95729.19
2023-01-05T06:34:47.293Z,95739.63
2023-01-05T06:37:13.953Z,95733.69
2023-01-05T06:39:40.397Z,95733.69
2023-01-05T06:42:06.897Z,95736.75
2023-01-05T06:44:33.503Z,95741.06
2023-01-05T06:46:59.936Z,95747.47
2023-01-05T06:49:26.536Z,95751.78
2023-01-05T06:51:53.075Z,95750.19
2023-01-05T06:54:19.660Z,95759.47
2023-01-05T06:56:46.348Z,95758.50
2023-01-05T06:59:12.945Z,95757.41
2023-01-05T07:01:39.692Z,95772.75
2023-01-05T07:04:06.285Z,95772.09
2023-01-05T07:06:34.714Z,95785.72
2023-01-05T07:09:01.449Z,95779.47
2023-01-05T07:11:28.027Z,95786.38
2023-01-05T07:13:54.712Z,95774.19
2023-01-05T07:16:21.380Z,95784.28
2023-01-05T07:18:47.951Z,95779.78
2023-01-05T07:21:14.642Z,95789.56
2023-01-05T07:23:41.106Z,95795.63
2023-01-05T07:26:08.961Z,95794.19
2023-01-05T07:28:36.716Z,95799.63
2023-01-05T07:31:04.011Z,95801.41
2023-01-05T07:33:36.083Z,95797.06
2023-01-05T07:36:06.082Z,95795.00
2023-01-05T07:38:32.803Z,95803.97
2023-01-05T07:41:00.331Z,95811.00
2023-01-05T07:43:27.333Z,95821.59
2023-01-05T07:46:01.420Z,95825.41
2023-01-05T07:48:28.018Z,95819.19
2023-01-05T07:51:00.337Z,95819.66
2023-01-05T07:53:27.395Z,95814.22
2023-01-05T07:55:58.530Z,95816.94
2023-01-05T07:58:26.287Z,95817.91
2023-01-05T08:00:53.215Z,95826.53
2023-01-05T08:03:20.165Z,95821.59
2023-01-05T08:05:47.396Z,95815.63
2023-01-05T08:08:19.096Z,95827.03
2023-01-05T08:10:49.017Z,95824.13
2023-01-05T08:13:15.504Z,95832.94
2023-01-05T08:15:47.453Z,95840.81
2023-01-05T08:18:17.237Z,95827.97
2023-01-05T08:20:43.992Z,95843.34
2023-01-05T08:23:10.538Z,95839.69
2023-01-05T08:25:37.150Z,95841.28
2023-01-05T08:28:03.874Z,95847.84
2023-01-05T08:30:30.619Z,95831.53
2023-01-05T08:32:57.093Z,95860.47
2023-01-05T08:35:23.648Z,95845.59
2023-01-05T08:37:50.155Z,95859.06
2023-01-05T08:40:16.912Z,95872.50
2023-01-05T08:42:43.469Z,95865.63
2023-01-05T08:45:10.465Z,95883.09
2023-01-05T08:47:37.061Z,95851.53
2023-01-05T08:50:03.829Z,95859.84
2023-01-05T08:52:30.327Z,95866.72
2023-01-05T08:54:56.956Z,95880.31
2023-01-05T08:57:23.434Z,95881.47
2023-01-05T08:59:49.984Z,95891.53
2023-01-05T09:02:23.381Z,95888.31
2023-01-05T09:04:52.321Z,95893.88
2023-01-05T09:07:19.097Z,95899.78
2023-01-05T09:09:45.623Z,95901.66
2023-01-05T09:12:12.162Z,95903.72
2023-01-05T09:14:38.738Z,95896.00
2023-01-05T09:17:07.455Z,95889.88
2023-01-05T09:19:34.863Z,95897.69
2023-01-05T09:22:01.346Z,95897.00
2023-01-05T09:24:28.073Z,95898.25
2023-01-05T09:26:54.682Z,95907.34
2023-01-05T09:29:21.234Z,95908.28
2023-01-05T09:31:47.790Z,95907.00
2023-01-05T09:34:14.385Z,95918.66
2023-01-05T09:36:40.891Z,95910.19
2023-01-05T09:39:07.680Z,95900.94
2023-01-05T09:41:38.362Z,95915.81
2023-01-05T09:44:11.571Z,95917.59
2023-01-05T09:46:41.675Z,95929.25
2023-01-05T09:49:13.971Z,95925.00
2023-01-05T09:51:42.040Z,95928.41
2023-01-05T09:54:15.964Z,95921.59
2023-01-05T09:57:15.109Z,95919.22
2023-01-05T09:59:37.246Z,95923.84
2023-01-05T10:02:20.310Z,95934.16
2023-01-05T10:04:48.114Z,95931.13
2023-01-05T10:07:30.234Z,95928.31
2023-01-05T10:10:02.925Z,95926.56
2023-01-05T10:12:40.009Z,95923.22
2023-01-05T10:15:09.565Z,95942.28
2023-01-05T10:17:42.304Z,95931.41
2023-01-05T10:20:18.565Z,95934.44
2023-01-05T10:23:15.458Z,95964.75
2023-01-05T10:25:54.756Z,95947.28
2023-01-05T10:28:39.286Z,95941.41
2023-01-05T10:31:29.874Z,95941.72
2023-01-05T10:34:27.721Z,95942.66
2023-01-05T10:37:18.621Z,95942.66
2023-01-05T10:40:19.541Z,95938.69
2023-01-05T10:42:52.061Z,95897.41
2023-01-05T10:45:20.488Z,95929.88
2023-01-05T10:47:49.394Z,95956.00
2023-01-05T10:50:39.247Z,95925.88
2023-01-05T10:53:16.131Z,95931.53
2023-01-05T10:55:51.035Z,95936.81
2023-01-05T10:58:26.102Z,95936.03
2023-01-05T11:00:55.396Z,95924.03
2023-01-05T11:04:05.805Z,95927.88
2023-01-05T11:06:27.647Z,95924.03
2023-01-05T11:08:54.955Z,95930.13
2023-01-05T11:11:25.940Z,95931.88
2023-01-05T11:13:55.646Z,95935.88
2023-01-05T11:16:26.778Z,95930.94
2023-01-05T11:19:04.830Z,95919.22
2023-01-05T11:21:37.062Z,95919.38
2023-01-05T11:24:04.735Z,95928.38
2023-01-05T11:26:34.044Z,95924.03
2023-01-05T11:29:09.811Z,95934.66
2023-01-05T11:32:03.699Z,95925.97
2023-01-05T11:34:43.555Z,95915.38
2023-01-05T11:37:10.118Z,95938.81
2023-01-05T11:40:04.851Z,95938.63
2023-01-05T11:42:35.055Z,95937.22
2023-01-05T11:45:17.290Z,95932.72
2023-01-05T11:47:49.988Z,95945.81
2023-01-05T11:50:26.645Z,95945.97
2023-01-05T11:52:58.590Z,95959.19
2023-01-05T11:55:39.053Z,95940.41
2023-01-05T11:58:17.427Z,95947.34
2023-01-05T12:00:46.691Z,95947.13
2023-01-05T12:03:27.990Z,95944.19
2023-01-05T12:05:57.634Z,95933.88
2023-01-05T12:08:45.824Z,95934.94
2023-01-05T12:11:17.345Z,95926.13
2023-01-05T12:14:16.875Z,95927.38
2023-01-05T12:16:54.112Z,95915.81
2023-01-05T12:19:20.563Z,95927.91
2023-01-05T12:22:05.534Z,95926.94
2023-01-05T12:24:37.064Z,95931.56
2023-01-05T12:27:27.347Z,95931.88
2023-01-05T12:32:12.915Z,95926.31
2023-01-05T12:34:07.224Z,95923.91
2023-01-05T12:36:54.596Z,95931.75
2023-01-05T12:39:39.355Z,95922.31
2023-01-05T12:42:21.990Z,95923.31
2023-01-05T12:45:29.614Z,95918.03
2023-01-05T12:48:17.103Z,95914.19
2023-01-05T12:51:06.042Z,95918.38
2023-01-05T12:53:35.560Z,95918.78
2023-01-05T12:56:24.960Z,95921.97
2023-01-05T12:59:15.876Z,95919.63
2023-01-05T13:01:59.564Z,95925.06
2023-01-05T13:04:45.012Z,95914.53
2023-01-05T13:07:38.584Z,95908.63
2023-01-05T13:10:12.471Z,95907.38
2023-01-05T13:12:40.398Z,95911.41
2023-01-05T13:15:29.589Z,95920.81
2023-01-05T13:17:59.001Z,95926.63
2023-01-05T13:20:38.369Z,95928.72
2023-01-05T13:23:12.136Z,95921.84
2023-01-05T13:25:49.964Z,95912.56
2023-01-05T13:28:19.311Z,95916.09
2023-01-05T13:31:03.717Z,95915.00
2023-01-05T13:33:58.272Z,95927.97
2023-01-05T13:36:48.683Z,95937.06
2023-01-05T13:39:47.566Z,95932.41
2023-01-05T13:42:41.817Z,95932.69
2023-01-05T13:45:20.368Z,95929.59
2023-01-05T13:48:07.432Z,95932.94
2023-01-05T13:50:56.759Z,95940.88
2023-01-05T13:53:26.992Z,95946.75
2023-01-05T13:55:57.064Z,95965.91
2023-01-05T13:58:41.174Z,95952.59
2023-01-05T14:01:18.011Z,95955.31
2023-01-05T14:03:51.485Z,95944.84
2023-01-05T14:06:28.461Z,95950.41
2023-01-05T14:09:06.280Z,95947.94
2023-01-05T14:11:33.048Z,95959.91
2023-01-05T14:14:24.955Z,95957.50
2023-01-05T14:16:52.734Z,95958.91
2023-01-05T14:19:21.445Z,95964.03
2023-01-05T14:21:50.568Z,95965.47
2023-01-05T14:24:40.380Z,95974.72
2023-01-05T14:27:09.498Z,95979.75
2023-01-05T14:29:45.133Z,95986.28
2023-01-05T14:32:29.943Z,95981.34
2023-01-05T14:35:19.633Z,95989.59
2023-01-05T14:37:57.395Z,95996.66
2023-01-05T14:40:31.892Z,95996.66
2023-01-05T14:43:00.253Z,95999.69
2023-01-05T14:45:33.102Z,96004.91
2023-01-05T14:48:02.446Z,95996.25
2023-01-05T14:50:40.499Z,96005.31
2023-01-05T14:53:09.575Z,96005.53
2023-01-05T14:55:40.140Z,96008.03
2023-01-05T14:58:36.007Z,96008.75
2023-01-05T15:01:18.860Z,96010.97
2023-01-05T15:04:03.517Z,96012.47
2023-01-05T15:06:41.314Z,96015.59
2023-01-05T15:09:26.242Z,96014.88
2023-01-05T15:12:14.917Z,96019.63
2023-01-05T15:15:19.237Z,96012.59
2023-01-05T15:18:07.644Z,96014.38
2023-01-05T15:21:01.995Z,96029.88
2023-01-05T15:23:57.030Z,96021.53
2023-01-05T15:26:48.817Z,96025.63
2023-01-05T15:29:45.315Z,96017.78
2023-01-05T15:32:12.967Z,96024.22
2023-01-05T15:34:45.695Z,96023.03
2023-01-05T15:37:31.137Z,96022.22
2023-01-05T15:39:59.116Z,96032.47
2023-01-05T15:42:43.622Z,96042.22
2023-01-05T15:45:25.748Z,96037.72
2023-01-05T15:47:53.267Z,96038.31
2023-01-05T15:50:23.315Z,96038.31
2023-01-05T15:52:55.664Z,96032.38
2023-01-05T15:55:22.773Z,96043.53
2023-01-05T15:57:55.004Z,96043.81
2023-01-05T16:00:25.846Z,96048.97
2023-01-05T16:02:52.432Z,96050.53
2023-01-05T16:05:27.699Z,96050.25
2023-01-05T16:07:59.391Z,96049.16
2023-01-05T16:10:28.372Z,96055.59
2023-01-05T16:13:07.904Z,96054.00
2023-01-05T16:15:35.879Z,96059.13
2023-01-05T16:18:05.581Z,96065.63
2023-01-05T16:20:33.051Z,96062.63
2023-01-05T16:23:08.952Z,96067.25
2023-01-05T16:25:43.642Z,96072.00
2023-01-05T16:28:17.064Z,96072.00
2023-01-05T16:30:45.606Z,96074.22
2023-01-05T16:33:33.068Z,96066.47
2023-01-05T16:36:07.493Z,96065.13
2023-01-05T16:38:34.549Z,96068.44
2023-01-05T16:41:19.708Z,96076.09
2023-01-05T16:43:52.354Z,96068.75
2023-01-05T16:46:20.921Z,96084.53
2023-01-05T16:48:47.925Z,96078.31
2023-01-05T16:51:18.251Z,96085.63
2023-01-05T16:53:51.732Z,96086.75
2023-01-05T16:56:42.579Z,96095.69
2023-01-05T16:59:30.726Z,96094.06
2023-01-05T17:01:57.261Z,96089.94
2023-01-05T17:04:23.941Z,96100.50
2023-01-05T17:06:51.903Z,96095.88
2023-01-05T17:09:29.513Z,96091.56
2023-01-05T17:11:57.129Z,96104.00
2023-01-05T17:14:26.222Z,96098.59
2023-01-05T17:16:52.735Z,96098.59
2023-01-05T17:19:20.911Z,96107.22
2023-01-05T17:21:52.321Z,96109.84
2023-01-05T17:24:18.870Z,96109.75
2023-01-05T17:26:45.716Z,96102.91
2023-01-05T17:29:32.517Z,96114.38
2023-01-05T17:31:59.620Z,96107.84
2023-01-05T17:34:26.381Z,96119.19
2023-01-05T17:36:58.440Z,96118.72
2023-01-05T17:39:25.326Z,96106.22
2023-01-05T17:41:52.209Z,96112.44
2023-01-05T17:44:18.706Z,96113.56
2023-01-05T17:46:47.020Z,96113.56
2023-01-05T17:49:20.337Z,96122.50
2023-01-05T17:51:47.525Z,96127.94
2023-01-05T17:54:14.137Z,96115.47
2023-01-05T17:56:40.820Z,96114.38
2023-01-05T17:59:07.521Z,96113.28
2023-01-05T18:01:34.292Z,96112.44
2023-01-05T18:04:01.621Z,96111.06
2023-01-05T18:06:28.730Z,96117.59
2023-01-05T18:08:55.440Z,96127.06
2023-01-05T18:11:21.991Z,96114.28
2023-01-05T18:13:48.660Z,96117.78
2023-01-05T18:16:15.710Z,96121.81
2023-01-05T18:18:42.320Z,96119.91
2023-01-05T18:21:08.954Z,96112.28
2023-01-05T18:23:36.004Z,96110.38
2023-01-05T18:26:07.825Z,96120.13
2023-01-05T18:28:34.730Z,96116.31
2023-01-05T18:31:01.510Z,96116.31
2023-01-05T18:33:28.093Z,96117.91
2023-01-05T18:38:21.839Z,96116.84
2023-01-05T18:40:49.264Z,96111.09
2023-01-05T18:43:16.489Z,96119.25
2023-01-05T18:45:43.044Z,96121.13
2023-01-05T18:48:09.721Z,96120.03
2023-01-05T18:50:40.240Z,96111.91
2023-01-05T18:53:06.741Z,96115.13
2023-01-05T18:55:34.339Z,96105.34
2023-01-05T18:58:00.791Z,96118.41
2023-01-05T19:00:27.258Z,96118.13
2023-01-05T19:02:53.964Z,96122.75
2023-01-05T19:05:20.450Z,96118.13
2023-01-05T19:07:51.060Z,96125.47
2023-01-05T19:10:17.685Z,96118.91
2023-01-05T19:12:44.278Z,96117.81
2023-01-05T19:15:11.319Z,96117.53
2023-01-05T19:17:37.855Z,96112.09
2023-01-05T19:20:04.925Z,96112.91
2023-01-05T19:22:31.597Z,96119.16
2023-01-05T19:24:58.180Z,96123.47
2023-01-05T19:27:24.629Z,96118.56
2023-01-05T19:29:51.159Z,96113.13
2023-01-05T19:32:17.673Z,96109.28
2023-01-05T19:34:44.153Z,96115.53
2023-01-05T19:37:10.882Z,96115.25
2023-01-05T19:39:37.515Z,96112.53
2023-01-05T19:42:04.087Z,96113.31
2023-01-05T19:44:30.821Z,96118.75
2023-01-05T19:46:57.454Z,96112.53
2023-01-05T19:49:26.164Z,96119.84
2023-01-05T19:51:53.553Z,96113.91
2023-01-05T19:54:20.988Z,96109.59
2023-01-05T19:56:47.566Z,96114.22
2023-01-05T19:59:19.396Z,96118.31
2023-01-05T20:01:46.013Z,96113.19
2023-01-05T20:04:13.237Z,96117.31
2023-01-05T20:06:42.530Z,96116.84
2023-01-05T20:09:12.096Z,96113.88
2023-01-05T20:11:40.896Z,96114.47
2023-01-05T20:14:17.446Z,96112.66
2023-01-05T20:16:47.525Z,96116.00
2023-01-05T20:19:14.087Z,96106.81
2023-01-05T20:21:41.153Z,96118.28
2023-01-05T20:24:11.323Z,96117.25
2023-01-05T20:26:38.028Z,96114.31
2023-01-05T20:29:04.849Z,96117.91
2023-01-05T20:31:37.916Z,96115.78
2023-01-05T20:34:08.245Z,96115.88
2023-01-05T20:36:35.614Z,96114.06
2023-01-05T20:39:04.211Z,96122.56
2023-01-05T20:41:34.288Z,96117.72
2023-01-05T20:44:01.301Z,96102.06
2023-01-05T20:46:33.873Z,96108.84
2023-01-05T20:49:01.075Z,96109.16
2023-01-05T20:51:28.695Z,96108.66
2023-01-05T20:53:57.832Z,96102.72
2023-01-05T20:56:26.929Z,96110.06
2023-01-05T20:58:54.987Z,96119.28
2023-01-05T21:01:22.471Z,96119.78
2023-01-05T21:03:52.021Z,96123.31
2023-01-05T21:06:20.157Z,96130.34
2023-01-05T21:08:48.561Z,96128.13
2023-01-05T21:11:17.556Z,96141.09
2023-01-05T21:13:48.348Z,96142.63
2023-01-05T21:16:24.239Z,96140.97
2023-01-05T21:18:51.440Z,96143.28
2023-01-05T21:21:20.688Z,96142.72
2023-01-05T21:23:48.939Z,96139.13
2023-01-05T21:26:16.036Z,96134.19
2023-01-05T21:28:43.825Z,96133.59
2023-01-05T21:31:13.789Z,96128.69
2023-01-05T21:33:41.211Z,96133.50
2023-01-05T21:36:13.274Z,96134.34
2023-01-05T21:39:00.128Z,96138.88
2023-01-05T21:41:26.460Z,96139.69
2023-01-05T21:43:52.925Z,96133.97
2023-01-05T21:46:19.523Z,96145.59
2023-01-05T21:48:45.993Z,96143.19
2023-01-05T21:51:12.543Z,96142.19
2023-01-05T21:53:39.022Z,96148.19
2023-01-05T21:56:13.477Z,96147.16
2023-01-05T21:58:39.906Z,96154.50
2023-01-05T22:01:06.554Z,96154.81
2023-01-05T22:03:33.079Z,96147.75
2023-01-05T22:05:59.609Z,96146.16
2023-01-05T22:08:26.117Z,96151.28
2023-01-05T22:10:56.776Z,96139.13
2023-01-05T22:13:24.395Z,96154.00
2023-01-05T22:15:51.451Z,96154.00
2023-01-05T22:18:18.962Z,96153.72
2023-01-05T22:20:45.962Z,96157.50
2023-01-05T22:23:13.205Z,96158.00
2023-01-05T22:25:40.875Z,96155.31
2023-01-05T22:28:08.077Z,96153.38
2023-01-05T22:30:35.064Z,96158.50
2023-01-05T22:33:01.866Z,96150.38
2023-01-05T22:35:28.528Z,96144.94
2023-01-05T22:37:55.740Z,96143.06
2023-01-05T22:40:22.834Z,96134.09
2023-01-05T22:42:49.311Z,96131.38
2023-01-05T22:45:16.571Z,96141.16
2023-01-05T22:47:43.062Z,96132.22
2023-01-05T22:50:09.917Z,96130.31
2023-01-05T22:52:36.459Z,96134.94
2023-01-05T22:55:03.017Z,96139.53
2023-01-05T22:57:29.649Z,96136.81
2023-01-05T22:59:56.180Z,96134.94
2023-01-05T23:02:22.797Z,96134.09
2023-01-05T23:04:49.447Z,96134.09
2023-01-05T23:07:15.953Z,96135.72
2023-01-05T23:09:42.487Z,96135.72
2023-01-05T23:12:09.613Z,96141.16
2023-01-05T23:14:36.681Z,96139.53
2023-01-05T23:17:03.246Z,96130.59
2023-01-05T23:19:29.977Z,96124.38
2023-01-05T23:21:56.537Z,96126.88
2023-01-05T23:24:23.175Z,96127.97
2023-01-05T23:26:49.694Z,96124.47
2023-01-05T23:29:16.252Z,96122.84
2023-01-05T23:31:42.995Z,96125.56
2023-01-05T23:34:09.618Z,96129.88
2023-01-05T23:36:36.166Z,96115.22
2023-01-05T23:39:02.718Z,96110.59
2023-01-05T23:41:29.215Z,96114.63
2023-01-05T23:43:55.791Z,96113.22
2023-01-05T23:46:22.363Z,96111.31
2023-01-05T23:48:50.507Z,96111.81
2023-01-05T23:51:17.384Z,96107.91
2023-01-05T23:53:46.516Z,96116.16
2023-01-05T23:56:16.407Z,96108.00
2023-01-05T23:58:43.686Z,96103.38
